Time;durP1;ratioP1;P1;durP2;ratioP2;P2;SDS_P1;SDS_P2;PMS_P1;PMS_P2;Temp;Humidity;BMP_temperature;BMP_pressure;BME280_temperature;BME280_humidity;BME280_pressure;Samples;Min_cycle;Max_cycle;Signal;HPM_P1;HPM_P2
2022/03/27 00:00:08;;;;;;;67.97;30.50;;;;;;;;;;5113426;28;20020;-52
2022/03/27 00:02:34;;;;;;;76.85;35.25;;;;;;;;;;5113393;28;20072;-50
2022/03/27 00:05:04;;;;;;;59.28;28.42;;;;;;;;;;5113271;28;20459;-49
2022/03/27 00:07:32;;;;;;;55.22;24.08;;;;;;;;;;5113405;28;20028;-51
2022/03/27 00:09:58;;;;;;;94.38;44.20;;;;;;;;;;5113198;28;20027;-50
2022/03/27 00:12:24;;;;;;;67.82;31.45;;;;;;;;;;5113564;28;20030;-51
2022/03/27 00:14:50;;;;;;;56.05;26.20;;;;;;;;;;5113432;28;20024;-49
2022/03/27 00:17:18;;;;;;;48.28;24.75;;;;;;;;;;5113183;28;20024;-51
2022/03/27 00:19:44;;;;;;;55.13;26.77;;;;;;;;;;5113074;28;20031;-50
2022/03/27 00:22:10;;;;;;;55.05;26.25;;;;;;;;;;5113252;28;20073;-50
2022/03/27 00:24:36;;;;;;;49.67;24.48;;;;;;;;;;5116506;28;20421;-48
2022/03/27 00:27:03;;;;;;;73.25;24.08;;;;;;;;;;5117071;28;20023;-55
2022/03/27 00:29:29;;;;;;;58.88;25.80;;;;;;;;;;5106446;28;20024;-54
2022/03/27 00:31:55;;;;;;;58.33;26.42;;;;;;;;;;5108825;28;20483;-50
2022/03/27 00:34:21;;;;;;;50.78;23.90;;;;;;;;;;5116698;28;20425;-49
2022/03/27 00:36:49;;;;;;;54.85;21.98;;;;;;;;;;5110510;28;20032;-49
2022/03/27 00:39:15;;;;;;;60.63;27.60;;;;;;;;;;5110633;28;20024;-47
2022/03/27 00:41:43;;;;;;;54.00;24.02;;;;;;;;;;5116669;28;20047;-51
2022/03/27 00:44:09;;;;;;;50.70;21.42;;;;;;;;;;5116381;28;20036;-48
2022/03/27 00:46:35;;;;;;;50.35;21.88;;;;;;;;;;5116373;28;20433;-49
2022/03/27 00:49:02;;;;;;;51.50;22.83;;;;;;;;;;5116315;28;20048;-49
2022/03/27 00:51:28;;;;;;;45.58;20.90;;;;;;;;;;5116321;28;20036;-47
2022/03/27 00:53:54;;;;;;;49.92;21.65;;;;;;;;;;5116238;28;20023;-47
2022/03/27 00:56:20;;;;;;;44.22;20.65;;;;;;;;;;5116380;28;20063;-47
2022/03/27 00:58:46;;;;;;;45.20;20.48;;;;;;;;;;5116327;28;20016;-46
2022/03/27 01:01:23;;;;;;;42.72;21.02;;;;;;;;;;5116391;28;20479;-48
2022/03/27 01:03:53;;;;;;;49.22;22.13;;;;;;;;;;5114806;28;20062;-48
2022/03/27 01:06:28;;;;;;;51.13;25.75;;;;;;;;;;5114479;28;20024;-47
2022/03/27 01:11:42;;;;;;;56.05;22.40;;;;;;;;;;5115929;28;20093;-49
2022/03/27 01:14:09;;;;;;;58.67;23.63;;;;;;;;;;5112134;28;20058;-48
2022/03/27 01:16:47;;;;;;;51.60;23.02;;;;;;;;;;5115673;28;20032;-47
2022/03/27 01:19:14;;;;;;;52.10;23.05;;;;;;;;;;5115707;28;20042;-51
2022/03/27 01:21:41;;;;;;;52.13;24.13;;;;;;;;;;5115950;28;20028;-49
2022/03/27 01:24:09;;;;;;;52.03;22.48;;;;;;;;;;5115995;28;20016;-50
2022/03/27 01:26:35;;;;;;;51.00;22.58;;;;;;;;;;5115571;28;20020;-47
2022/03/27 01:29:01;;;;;;;56.75;23.08;;;;;;;;;;5115782;28;20024;-48
2022/03/27 01:31:27;;;;;;;49.08;24.40;;;;;;;;;;5115728;28;20035;-52
2022/03/27 01:33:54;;;;;;;53.67;23.30;;;;;;;;;;5115455;28;20080;-49
2022/03/27 01:36:21;;;;;;;64.38;27.33;;;;;;;;;;5115147;28;20032;-49
2022/03/27 01:38:48;;;;;;;51.45;22.80;;;;;;;;;;5115454;28;20020;-51
2022/03/27 01:41:14;;;;;;;54.30;21.75;;;;;;;;;;5115591;28;20372;-47
2022/03/27 01:43:42;;;;;;;51.53;22.80;;;;;;;;;;5115368;28;20031;-48
2022/03/27 01:46:08;;;;;;;50.00;23.15;;;;;;;;;;5115976;28;20372;-53
2022/03/27 01:48:34;;;;;;;53.33;23.85;;;;;;;;;;5114970;28;20505;-51
2022/03/27 01:51:01;;;;;;;43.22;19.73;;;;;;;;;;5115110;28;20078;-48
2022/03/27 01:53:27;;;;;;;45.88;19.98;;;;;;;;;;5115314;28;20535;-50
2022/03/27 01:55:53;;;;;;;47.70;19.90;;;;;;;;;;5115253;28;20035;-49
2022/03/27 01:58:19;;;;;;;43.60;19.52;;;;;;;;;;5115179;28;20050;-51
2022/03/27 02:00:46;;;;;;;52.58;21.30;;;;;;;;;;5115176;28;20115;-48
2022/03/27 02:03:14;;;;;;;43.55;19.55;;;;;;;;;;5115115;28;20049;-48
2022/03/27 02:05:40;;;;;;;40.03;19.52;;;;;;;;;;5114952;28;20047;-51
2022/03/27 02:08:08;;;;;;;41.13;19.08;;;;;;;;;;5114933;28;20517;-48
2022/03/27 02:10:34;;;;;;;43.58;19.50;;;;;;;;;;5114836;28;20158;-50
2022/03/27 02:13:01;;;;;;;39.38;18.88;;;;;;;;;;5114977;28;20028;-50
2022/03/27 02:15:27;;;;;;;50.38;19.80;;;;;;;;;;5114796;28;20031;-50
2022/03/27 02:17:53;;;;;;;41.03;18.55;;;;;;;;;;5114770;28;20102;-49
2022/03/27 02:20:19;;;;;;;42.00;19.67;;;;;;;;;;5114446;28;20023;-48
2022/03/27 02:22:45;;;;;;;45.25;20.17;;;;;;;;;;5114937;28;20054;-48
2022/03/27 02:25:11;;;;;;;49.97;19.58;;;;;;;;;;5114693;28;20019;-48
2022/03/27 02:27:40;;;;;;;47.08;20.50;;;;;;;;;;5114741;28;20028;-50
2022/03/27 02:30:07;;;;;;;44.88;20.95;;;;;;;;;;5114631;28;20047;-54
2022/03/27 02:32:35;;;;;;;51.53;20.67;;;;;;;;;;5114483;28;20475;-49
2022/03/27 02:35:01;;;;;;;45.88;20.55;;;;;;;;;;5114385;28;20046;-49
2022/03/27 02:37:28;;;;;;;46.80;20.77;;;;;;;;;;5114613;28;20016;-50
2022/03/27 02:39:54;;;;;;;48.85;21.83;;;;;;;;;;5114310;28;20023;-50
2022/03/27 02:42:20;;;;;;;46.85;22.00;;;;;;;;;;5114449;28;20024;-48
2022/03/27 02:44:46;;;;;;;48.35;20.50;;;;;;;;;;5114566;28;20081;-49
2022/03/27 02:47:12;;;;;;;44.08;18.98;;;;;;;;;;5113214;28;20030;-49
2022/03/27 02:49:38;;;;;;;48.47;19.38;;;;;;;;;;5113980;28;20105;-50
2022/03/27 02:52:04;;;;;;;50.58;20.27;;;;;;;;;;5114205;28;20035;-49
2022/03/27 02:54:30;;;;;;;47.70;20.10;;;;;;;;;;5114237;28;20513;-49
2022/03/27 02:56:57;;;;;;;49.33;19.58;;;;;;;;;;5114156;28;20019;-51
2022/03/27 02:59:25;;;;;;;49.67;19.98;;;;;;;;;;5114141;28;20051;-51
2022/03/27 03:01:51;;;;;;;44.95;19.58;;;;;;;;;;5114159;28;20072;-50
2022/03/27 03:04:17;;;;;;;47.25;20.35;;;;;;;;;;5113959;28;20486;-50
2022/03/27 03:06:43;;;;;;;45.53;21.05;;;;;;;;;;5114108;28;20124;-50
2022/03/27 03:09:10;;;;;;;42.67;20.23;;;;;;;;;;5114003;28;20016;-51
2022/03/27 03:11:36;;;;;;;49.10;20.40;;;;;;;;;;5113951;28;20394;-50
2022/03/27 03:14:05;;;;;;;46.90;19.70;;;;;;;;;;5113777;28;20536;-49
2022/03/27 03:16:33;;;;;;;41.25;18.95;;;;;;;;;;5113779;28;20031;-53
2022/03/27 03:18:59;;;;;;;46.42;19.55;;;;;;;;;;5113892;28;20078;-53
2022/03/27 03:21:26;;;;;;;36.83;18.75;;;;;;;;;;5113807;28;20028;-55
2022/03/27 03:23:52;;;;;;;52.00;19.17;;;;;;;;;;5113800;28;20035;-53
2022/03/27 03:26:19;;;;;;;38.63;19.05;;;;;;;;;;5113966;28;20027;-53
2022/03/27 03:28:45;;;;;;;45.58;19.73;;;;;;;;;;5113749;28;20464;-53
2022/03/27 03:31:13;;;;;;;41.03;19.15;;;;;;;;;;5113893;28;20028;-53
2022/03/27 03:33:40;;;;;;;47.28;19.63;;;;;;;;;;5113713;28;20023;-50
2022/03/27 03:36:07;;;;;;;43.55;19.40;;;;;;;;;;5113754;28;20151;-51
2022/03/27 03:38:33;;;;;;;41.25;19.45;;;;;;;;;;5113902;28;20139;-48
2022/03/27 03:40:59;;;;;;;46.50;20.42;;;;;;;;;;5113656;28;20051;-53
2022/03/27 03:43:25;;;;;;;50.20;20.52;;;;;;;;;;5113944;28;20094;-53
2022/03/27 03:45:52;;;;;;;51.88;23.60;;;;;;;;;;5113855;28;20043;-48
2022/03/27 03:48:18;;;;;;;52.63;21.08;;;;;;;;;;5113287;28;20034;-50
2022/03/27 03:50:44;;;;;;;40.65;18.27;;;;;;;;;;5113429;28;20039;-50
2022/03/27 03:53:10;;;;;;;40.80;19.25;;;;;;;;;;5113687;28;20024;-49
2022/03/27 03:55:38;;;;;;;42.38;19.35;;;;;;;;;;5113810;28;20020;-56
2022/03/27 03:58:05;;;;;;;53.67;22.77;;;;;;;;;;5114820;28;20020;-50
2022/03/27 04:00:31;;;;;;;58.25;26.23;;;;;;;;;;5117627;28;20023;-51
2022/03/27 04:02:58;;;;;;;54.47;19.92;;;;;;;;;;5117478;28;20023;-50
2022/03/27 04:05:24;;;;;;;59.00;24.48;;;;;;;;;;5117316;28;20015;-48
2022/03/27 04:07:50;;;;;;;57.90;26.02;;;;;;;;;;5117592;28;20024;-53
2022/03/27 04:10:16;;;;;;;38.50;18.95;;;;;;;;;;5117236;28;20467;-51
2022/03/27 04:12:42;;;;;;;42.20;18.77;;;;;;;;;;5117509;28;20028;-50
2022/03/27 04:15:08;;;;;;;59.92;24.90;;;;;;;;;;5117380;28;20023;-51
2022/03/27 04:17:41;;;;;;;42.75;19.48;;;;;;;;;;5117021;28;20032;-51
2022/03/27 04:20:08;;;;;;;42.95;20.27;;;;;;;;;;5117117;28;20033;-51
2022/03/27 04:22:34;;;;;;;52.08;21.88;;;;;;;;;;5117222;28;20090;-50
2022/03/27 04:25:00;;;;;;;57.90;25.27;;;;;;;;;;5117175;28;20411;-50
2022/03/27 04:27:26;;;;;;;48.15;23.05;;;;;;;;;;5116959;28;20059;-50
2022/03/27 04:29:54;;;;;;;55.92;22.73;;;;;;;;;;5116921;28;20020;-51
2022/03/27 04:32:20;;;;;;;53.28;23.58;;;;;;;;;;5116986;28;20051;-51
2022/03/27 04:34:50;;;;;;;58.42;25.48;;;;;;;;;;5116717;28;20058;-51
2022/03/27 04:37:18;;;;;;;61.35;25.98;;;;;;;;;;5116761;28;20103;-51
2022/03/27 04:39:44;;;;;;;60.58;25.83;;;;;;;;;;5116905;28;20478;-51
2022/03/27 04:42:10;;;;;;;59.00;26.02;;;;;;;;;;5116718;28;20089;-51
2022/03/27 04:44:36;;;;;;;59.42;24.88;;;;;;;;;;5116659;28;20024;-50
2022/03/27 04:47:03;;;;;;;48.80;21.75;;;;;;;;;;5116665;28;20030;-51
2022/03/27 04:49:29;;;;;;;45.10;20.67;;;;;;;;;;5116286;28;20067;-52
2022/03/27 04:51:55;;;;;;;44.63;19.27;;;;;;;;;;5116300;28;20127;-52
2022/03/27 04:54:21;;;;;;;43.28;20.58;;;;;;;;;;5116594;28;20379;-52
2022/03/27 04:56:49;;;;;;;45.58;19.60;;;;;;;;;;5116535;28;20024;-51
2022/03/27 04:59:15;;;;;;;44.92;19.73;;;;;;;;;;5116301;28;20051;-52
2022/03/27 05:01:42;;;;;;;41.53;18.65;;;;;;;;;;5116370;28;20020;-52
2022/03/27 05:04:11;;;;;;;35.38;15.65;;;;;;;;;;5116603;28;20015;-51
2022/03/27 05:06:37;;;;;;;38.53;17.52;;;;;;;;;;5116497;28;20446;-51
2022/03/27 05:09:03;;;;;;;39.88;16.70;;;;;;;;;;5115605;28;20024;-51
2022/03/27 05:11:29;;;;;;;38.47;17.02;;;;;;;;;;5115514;28;20062;-54
2022/03/27 05:13:56;;;;;;;48.47;21.08;;;;;;;;;;5116195;28;20016;-53
2022/03/27 05:16:23;;;;;;;69.88;29.42;;;;;;;;;;5116025;28;20507;-53
2022/03/27 05:18:49;;;;;;;66.28;31.85;;;;;;;;;;5116437;28;20027;-53
2022/03/27 05:21:18;;;;;;;66.25;29.33;;;;;;;;;;5116100;28;20035;-53
2022/03/27 05:23:45;;;;;;;54.30;26.65;;;;;;;;;;5116262;28;20024;-53
2022/03/27 05:26:11;;;;;;;66.97;30.27;;;;;;;;;;5116045;28;20103;-52
2022/03/27 05:28:37;;;;;;;61.42;28.10;;;;;;;;;;5115815;28;20024;-52
2022/03/27 05:31:08;;;;;;;54.35;28.27;;;;;;;;;;5115669;28;20565;-53
2022/03/27 05:33:35;;;;;;;53.22;26.13;;;;;;;;;;5115572;28;20031;-54
2022/03/27 05:36:04;;;;;;;51.08;26.75;;;;;;;;;;5115976;28;20023;-55
2022/03/27 05:38:30;;;;;;;43.88;22.83;;;;;;;;;;5115677;28;20098;-53
2022/03/27 05:40:56;;;;;;;51.53;24.83;;;;;;;;;;5115681;28;20094;-55
2022/03/27 05:43:22;;;;;;;50.42;22.17;;;;;;;;;;5116016;28;20036;-55
2022/03/27 05:45:48;;;;;;;40.97;21.15;;;;;;;;;;5115353;28;20024;-53
2022/03/27 05:48:14;;;;;;;35.38;19.90;;;;;;;;;;5115341;28;20024;-53
2022/03/27 05:50:40;;;;;;;32.42;17.58;;;;;;;;;;5115136;28;20036;-53
2022/03/27 05:53:06;;;;;;;36.47;17.75;;;;;;;;;;5097376;28;20072;-54
2022/03/27 05:55:33;;;;;;;34.03;17.73;;;;;;;;;;5115454;28;20051;-53
2022/03/27 05:58:00;;;;;;;29.25;16.35;;;;;;;;;;5115339;28;20023;-53
2022/03/27 06:00:26;;;;;;;32.50;16.38;;;;;;;;;;5115021;28;20028;-53
2022/03/27 06:02:53;;;;;;;30.63;15.55;;;;;;;;;;5115289;28;20420;-54
2022/03/27 06:05:23;;;;;;;30.67;15.70;;;;;;;;;;5115110;28;20020;-52
2022/03/27 06:07:50;;;;;;;28.15;15.13;;;;;;;;;;5115222;28;20356;-52
2022/03/27 06:10:22;;;;;;;28.88;14.85;;;;;;;;;;5114799;28;20023;-55
2022/03/27 06:12:48;;;;;;;24.38;15.02;;;;;;;;;;5115040;28;20042;-53
2022/03/27 06:15:14;;;;;;;25.65;14.48;;;;;;;;;;5114882;28;20493;-52
2022/03/27 06:17:42;;;;;;;23.13;13.68;;;;;;;;;;5114997;28;20031;-54
2022/03/27 06:20:12;;;;;;;31.02;18.67;;;;;;;;;;5114698;28;20023;-52
2022/03/27 06:22:39;;;;;;;35.15;20.67;;;;;;;;;;5114334;28;20106;-53
2022/03/27 06:25:08;;;;;;;42.83;23.73;;;;;;;;;;5114560;28;20052;-52
2022/03/27 06:27:34;;;;;;;25.92;16.80;;;;;;;;;;5114665;28;20414;-53
2022/03/27 06:30:00;;;;;;;28.13;16.35;;;;;;;;;;5114609;28;20016;-51
2022/03/27 06:32:26;;;;;;;34.28;15.90;;;;;;;;;;5114312;28;20035;-51
2022/03/27 06:34:57;;;;;;;24.90;14.10;;;;;;;;;;5096159;28;20028;-51
2022/03/27 06:37:23;;;;;;;24.08;14.80;;;;;;;;;;5114515;28;20054;-51
2022/03/27 06:39:49;;;;;;;24.02;13.52;;;;;;;;;;5114653;28;20027;-51
2022/03/27 06:42:16;;;;;;;29.38;16.00;;;;;;;;;;5114302;28;20035;-51
2022/03/27 06:44:42;;;;;;;19.92;14.13;;;;;;;;;;5114228;28;20019;-53
2022/03/27 06:47:09;;;;;;;27.90;14.00;;;;;;;;;;5113967;28;20028;-54
2022/03/27 06:49:38;;;;;;;31.13;16.40;;;;;;;;;;5113919;28;20058;-53
2022/03/27 06:52:06;;;;;;;20.42;13.63;;;;;;;;;;5114008;28;20039;-51
2022/03/27 06:54:32;;;;;;;23.58;11.98;;;;;;;;;;5114185;28;20028;-52
2022/03/27 06:56:58;;;;;;;23.25;11.55;;;;;;;;;;5113979;28;20020;-53
2022/03/27 06:59:25;;;;;;;20.40;12.95;;;;;;;;;;5114065;28;20030;-53
2022/03/27 07:04:36;;;;;;;26.52;13.38;;;;;;;;;;5114202;28;20110;-53
2022/03/27 07:07:02;;;;;;;27.55;15.13;;;;;;;;;;5113865;28;20539;-52
2022/03/27 07:09:28;;;;;;;25.33;15.48;;;;;;;;;;5113836;28;20456;-53
2022/03/27 07:11:54;;;;;;;16.50;8.60;;;;;;;;;;5095307;28;20441;-56
2022/03/27 07:14:20;;;;;;;13.88;8.52;;;;;;;;;;5113785;28;20023;-57
2022/03/27 07:16:46;;;;;;;10.98;7.93;;;;;;;;;;5113529;28;20096;-57
2022/03/27 07:19:14;;;;;;;13.38;8.35;;;;;;;;;;5095153;28;20042;-57
2022/03/27 07:21:42;;;;;;;14.18;7.68;;;;;;;;;;5113594;28;20056;-57
2022/03/27 07:24:08;;;;;;;15.05;7.95;;;;;;;;;;5113599;28;20023;-59
2022/03/27 07:26:35;;;;;;;14.82;7.07;;;;;;;;;;5113607;28;20148;-58
2022/03/27 07:29:05;;;;;;;14.02;7.32;;;;;;;;;;5113847;28;20019;-58
2022/03/27 07:31:31;;;;;;;22.08;7.18;;;;;;;;;;5113755;28;20035;-57
2022/03/27 07:33:57;;;;;;;12.00;6.97;;;;;;;;;;5116516;28;20470;-57
2022/03/27 07:36:23;;;;;;;11.18;6.57;;;;;;;;;;5117782;28;20084;-57
2022/03/27 07:38:49;;;;;;;12.63;8.02;;;;;;;;;;5117959;28;20015;-57
2022/03/27 07:41:16;;;;;;;15.23;7.60;;;;;;;;;;5118298;28;20080;-59
2022/03/27 07:43:42;;;;;;;15.85;8.68;;;;;;;;;;5117647;28;20068;-58
2022/03/27 07:46:10;;;;;;;13.98;8.00;;;;;;;;;;5117598;28;20031;-58
2022/03/27 07:48:41;;;;;;;23.88;10.00;;;;;;;;;;5117659;28;20052;-58
2022/03/27 07:51:08;;;;;;;18.42;11.38;;;;;;;;;;5117356;28;20051;-57
2022/03/27 07:53:34;;;;;;;26.77;12.63;;;;;;;;;;5117631;28;20031;-56
2022/03/27 07:56:01;;;;;;;17.17;9.63;;;;;;;;;;5117752;28;20039;-59
2022/03/27 07:58:27;;;;;;;15.15;7.50;;;;;;;;;;5117573;28;20482;-59
2022/03/27 08:00:53;;;;;;;15.90;9.00;;;;;;;;;;5117619;28;20106;-57
2022/03/27 08:03:19;;;;;;;17.95;8.98;;;;;;;;;;5117655;28;20023;-58
2022/03/27 08:05:45;;;;;;;15.80;7.63;;;;;;;;;;5117603;28;20106;-57
2022/03/27 08:08:11;;;;;;;11.85;5.78;;;;;;;;;;5117298;28;20046;-58
2022/03/27 08:10:39;;;;;;;13.52;6.40;;;;;;;;;;5117232;28;20020;-58
2022/03/27 08:13:05;;;;;;;9.85;5.53;;;;;;;;;;5117634;28;20496;-58
2022/03/27 08:15:31;;;;;;;15.55;8.15;;;;;;;;;;5117085;28;20032;-58
2022/03/27 08:17:58;;;;;;;15.38;9.52;;;;;;;;;;5117367;28;20024;-59
2022/03/27 08:20:27;;;;;;;19.67;10.20;;;;;;;;;;5117168;28;20075;-58
2022/03/27 08:22:54;;;;;;;10.00;6.10;;;;;;;;;;5117100;28;20437;-62
2022/03/27 08:28:05;;;;;;;8.60;5.78;;;;;;;;;;5117238;28;20039;-60
2022/03/27 08:30:32;;;;;;;12.30;7.03;;;;;;;;;;5116736;28;20018;-61
2022/03/27 08:32:58;;;;;;;10.88;5.90;;;;;;;;;;5116958;28;20072;-61
2022/03/27 08:35:24;;;;;;;9.05;5.85;;;;;;;;;;5116763;28;20459;-62
2022/03/27 08:37:50;;;;;;;11.98;7.47;;;;;;;;;;5116715;28;20027;-61
2022/03/27 08:40:18;;;;;;;9.88;5.57;;;;;;;;;;5116609;28;20031;-59
2022/03/27 08:42:45;;;;;;;10.60;6.13;;;;;;;;;;5116491;28;20034;-59
2022/03/27 08:45:11;;;;;;;8.48;5.60;;;;;;;;;;5116446;28;20031;-59
2022/03/27 08:47:39;;;;;;;14.35;6.53;;;;;;;;;;5116442;28;20119;-61
2022/03/27 08:50:18;;;;;;;10.63;5.18;;;;;;;;;;5116442;28;20062;-63
2022/03/27 08:52:53;;;;;;;9.98;5.65;;;;;;;;;;5116310;28;20146;-60
2022/03/27 08:55:21;;;;;;;12.75;6.43;;;;;;;;;;5116479;28;20026;-58
2022/03/27 08:57:56;;;;;;;10.52;5.95;;;;;;;;;;5116208;28;20138;-57
2022/03/27 09:00:23;;;;;;;7.53;4.32;;;;;;;;;;5116384;28;20022;-58
2022/03/27 09:02:50;;;;;;;12.35;5.95;;;;;;;;;;5116289;28;20042;-59
2022/03/27 09:05:17;;;;;;;13.10;5.85;;;;;;;;;;5116117;28;20475;-57
2022/03/27 09:07:43;;;;;;;8.52;4.90;;;;;;;;;;5116092;28;20049;-57
2022/03/27 09:10:10;;;;;;;10.40;5.55;;;;;;;;;;5116069;28;20023;-57
2022/03/27 09:12:37;;;;;;;11.07;4.72;;;;;;;;;;5115995;28;20035;-57
2022/03/27 09:15:07;;;;;;;8.45;5.28;;;;;;;;;;5116075;28;20518;-58
2022/03/27 09:17:35;;;;;;;7.85;4.88;;;;;;;;;;5116042;28;20071;-57
2022/03/27 09:20:02;;;;;;;9.50;5.20;;;;;;;;;;5116173;28;20039;-57
2022/03/27 09:22:34;;;;;;;10.90;6.10;;;;;;;;;;5097705;28;20023;-57
2022/03/27 09:25:03;;;;;;;7.05;4.60;;;;;;;;;;5115906;28;20027;-57
2022/03/27 09:27:34;;;;;;;7.15;4.45;;;;;;;;;;5116064;28;20406;-57
2022/03/27 09:30:10;;;;;;;9.95;4.55;;;;;;;;;;5115790;28;20020;-60
2022/03/27 09:32:38;;;;;;;9.20;4.88;;;;;;;;;;5108744;28;20036;-59
2022/03/27 09:35:07;;;;;;;9.82;4.50;;;;;;;;;;5114012;27;20026;-59
2022/03/27 09:37:38;;;;;;;7.47;4.40;;;;;;;;;;5120720;27;20044;-59
2022/03/27 09:40:05;;;;;;;8.10;4.65;;;;;;;;;;5126059;27;20027;-59
2022/03/27 09:42:31;;;;;;;8.93;4.78;;;;;;;;;;5120364;27;20371;-58
2022/03/27 09:45:17;;;;;;;6.20;3.92;;;;;;;;;;5112470;27;20024;-59
2022/03/27 09:47:45;;;;;;;8.50;4.93;;;;;;;;;;5104477;28;20081;-60
2022/03/27 09:50:29;;;;;;;5.68;3.67;;;;;;;;;;5102811;28;20058;-59
2022/03/27 09:53:14;;;;;;;7.25;3.97;;;;;;;;;;5111263;28;20035;-59
2022/03/27 09:55:40;;;;;;;6.97;4.25;;;;;;;;;;5104259;28;20032;-58
2022/03/27 09:58:09;;;;;;;5.22;3.42;;;;;;;;;;5108034;28;20119;-59
2022/03/27 10:00:35;;;;;;;8.40;4.80;;;;;;;;;;5107804;28;20023;-58
2022/03/27 10:03:09;;;;;;;6.13;3.72;;;;;;;;;;5110529;28;20024;-59
2022/03/27 10:05:36;;;;;;;10.95;4.63;;;;;;;;;;5110696;28;20023;-59
2022/03/27 10:08:04;;;;;;;4.82;3.70;;;;;;;;;;5107556;28;20024;-59
2022/03/27 10:10:30;;;;;;;7.75;4.97;;;;;;;;;;5109864;28;20011;-59
2022/03/27 10:12:58;;;;;;;7.80;3.78;;;;;;;;;;5110436;28;20040;-61
2022/03/27 10:15:25;;;;;;;8.43;3.67;;;;;;;;;;5109553;28;20011;-59
2022/03/27 10:17:56;;;;;;;8.98;4.75;;;;;;;;;;5108488;28;20073;-60
2022/03/27 10:20:26;;;;;;;6.28;3.55;;;;;;;;;;5104953;28;20016;-59
2022/03/27 10:23:00;;;;;;;8.73;4.45;;;;;;;;;;5111165;28;20019;-59
2022/03/27 10:25:32;;;;;;;7.95;4.30;;;;;;;;;;5105673;28;20091;-58
2022/03/27 10:27:58;;;;;;;;;;;;;;;;;;5106403;28;20407;-57
2022/03/27 10:30:24;;;;;;;6.75;3.45;;;;;;;;;;5107776;28;19924;-60
2022/03/27 10:32:50;;;;;;;5.88;3.45;;;;;;;;;;5108623;28;20122;-58
2022/03/27 10:35:35;;;;;;;8.15;5.07;;;;;;;;;;5110240;28;20051;-60
2022/03/27 10:38:12;;;;;;;7.00;3.58;;;;;;;;;;5100763;28;20016;-60
2022/03/27 10:40:49;;;;;;;8.65;4.05;;;;;;;;;;5103842;28;20042;-61
2022/03/27 10:43:41;;;;;;;7.97;3.63;;;;;;;;;;5107781;28;20020;-59
2022/03/27 10:46:26;;;;;;;6.55;3.42;;;;;;;;;;5097770;28;20039;-59
2022/03/27 10:48:54;;;;;;;11.70;6.03;;;;;;;;;;5102286;28;20056;-59
2022/03/27 10:51:23;;;;;;;11.07;5.88;;;;;;;;;;5107712;28;20038;-59
2022/03/27 10:54:06;;;;;;;8.25;3.85;;;;;;;;;;5108345;28;20411;-60
2022/03/27 10:56:55;;;;;;;9.32;3.92;;;;;;;;;;5107812;28;20031;-60
2022/03/27 10:59:23;;;;;;;9.35;5.28;;;;;;;;;;5106703;28;20073;-61
2022/03/27 11:01:54;;;;;;;6.95;3.45;;;;;;;;;;5107808;28;20028;-59
2022/03/27 11:04:20;;;;;;;8.25;3.88;;;;;;;;;;5106654;28;20392;-59
2022/03/27 11:06:50;;;;;;;9.52;4.13;;;;;;;;;;5107195;28;20019;-61
2022/03/27 11:09:36;;;;;;;11.18;4.82;;;;;;;;;;5107514;28;20118;-59
2022/03/27 11:12:31;;;;;;;7.07;4.93;;;;;;;;;;5105936;28;20023;-61
2022/03/27 11:15:06;;;;;;;10.50;4.53;;;;;;;;;;5098917;28;20085;-60
2022/03/27 11:17:35;;;;;;;8.90;4.90;;;;;;;;;;5101688;28;20047;-61
2022/03/27 11:20:02;;;;;;;22.67;13.68;;;;;;;;;;5105757;28;20024;-63
2022/03/27 11:22:51;;;;;;;15.95;10.00;;;;;;;;;;5107956;28;20026;-61
2022/03/27 11:25:34;;;;;;;7.82;4.95;;;;;;;;;;5105078;28;20035;-61
2022/03/27 11:28:03;;;;;;;7.35;3.97;;;;;;;;;;5103219;28;20507;-59
2022/03/27 11:30:29;;;;;;;7.60;4.32;;;;;;;;;;5106337;28;20099;-63
2022/03/27 11:33:14;;;;;;;7.63;4.20;;;;;;;;;;5108070;28;20040;-65
2022/03/27 11:36:00;;;;;;;8.38;4.57;;;;;;;;;;5096176;28;20035;-63
2022/03/27 11:38:26;;;;;;;7.05;4.70;;;;;;;;;;5105730;28;20040;-61
2022/03/27 11:40:57;;;;;;;8.48;4.85;;;;;;;;;;5110408;28;20464;-62
2022/03/27 11:43:31;;;;;;;9.20;4.90;;;;;;;;;;5108776;28;20032;-59
2022/03/27 11:45:57;;;;;;;10.82;5.43;;;;;;;;;;5109189;28;20067;-59
2022/03/27 11:48:24;;;;;;;5.88;3.40;;;;;;;;;;5108810;28;20044;-58
2022/03/27 11:50:50;;;;;;;6.35;3.80;;;;;;;;;;5104556;28;20051;-62
2022/03/27 11:53:17;;;;;;;9.93;4.97;;;;;;;;;;5109961;28;20031;-60
2022/03/27 11:55:43;;;;;;;12.68;5.00;;;;;;;;;;5109608;28;20058;-65
2022/03/27 11:58:11;;;;;;;9.48;4.25;;;;;;;;;;5104193;28;20019;-61
2022/03/27 12:00:39;;;;;;;6.55;3.38;;;;;;;;;;5109704;28;20008;-62
2022/03/27 12:03:13;;;;;;;6.35;3.60;;;;;;;;;;5105597;28;20024;-62
2022/03/27 12:05:39;;;;;;;4.93;2.92;;;;;;;;;;5108614;28;20452;-60
2022/03/27 12:08:07;;;;;;;5.40;3.17;;;;;;;;;;5108611;28;20023;-60
2022/03/27 12:10:41;;;;;;;12.55;4.07;;;;;;;;;;5108940;28;20163;-60
2022/03/27 12:13:10;;;;;;;7.57;3.95;;;;;;;;;;5105606;28;20369;-60
2022/03/27 12:15:47;;;;;;;6.57;3.83;;;;;;;;;;5108649;28;20151;-61
2022/03/27 12:18:14;;;;;;;7.45;3.83;;;;;;;;;;5106743;28;20429;-59
2022/03/27 12:20:44;;;;;;;5.00;3.53;;;;;;;;;;5112376;28;20098;-60
2022/03/27 12:23:20;;;;;;;8.30;4.72;;;;;;;;;;5101389;28;20382;-59
2022/03/27 12:25:56;;;;;;;7.88;4.00;;;;;;;;;;5112330;28;20019;-58
2022/03/27 12:31:19;;;;;;;7.70;4.60;;;;;;;;;;5075242;28;20032;-61
2022/03/27 12:33:47;;;;;;;7.25;4.03;;;;;;;;;;5112211;28;20039;-61
2022/03/27 12:36:14;;;;;;;7.13;3.58;;;;;;;;;;5110776;28;20452;-60
2022/03/27 12:38:41;;;;;;;8.07;3.78;;;;;;;;;;5110208;28;20024;-59
2022/03/27 12:41:08;;;;;;;4.85;3.20;;;;;;;;;;5088799;27;20022;-60
2022/03/27 12:43:34;;;;;;;5.75;3.83;;;;;;;;;;5086842;27;20024;-60
2022/03/27 12:46:17;;;;;;;7.47;4.90;;;;;;;;;;5085136;27;20043;-60
2022/03/27 12:48:43;;;;;;;10.85;5.22;;;;;;;;;;5084690;27;20044;-59
2022/03/27 12:51:12;;;;;;;9.60;4.85;;;;;;;;;;5085025;28;20028;-60
2022/03/27 12:53:38;;;;;;;22.92;13.13;;;;;;;;;;5085140;27;20032;-63
2022/03/27 12:56:11;;;;;;;8.55;5.80;;;;;;;;;;5084928;28;20095;-60
2022/03/27 12:58:41;;;;;;;16.88;7.57;;;;;;;;;;5085414;28;20020;-61
2022/03/27 13:01:20;;;;;;;28.55;14.85;;;;;;;;;;5085157;27;20511;-61
2022/03/27 13:04:02;;;;;;;12.27;7.53;;;;;;;;;;5085177;27;20024;-58
2022/03/27 13:06:51;;;;;;;8.88;5.30;;;;;;;;;;5085278;28;20028;-59
2022/03/27 13:09:21;;;;;;;31.20;15.45;;;;;;;;;;5041417;28;20503;-62
2022/03/27 13:11:49;;;;;;;36.80;20.23;;;;;;;;;;5033783;28;20999;-59
2022/03/27 13:14:15;;;;;;;21.08;10.75;;;;;;;;;;5041267;28;20044;-59
2022/03/27 13:16:42;;;;;;;17.77;9.40;;;;;;;;;;5038947;28;20037;-57
2022/03/27 13:19:12;;;;;;;21.92;10.90;;;;;;;;;;5035273;28;20040;-58
2022/03/27 13:21:53;;;;;;;12.38;6.63;;;;;;;;;;5042822;28;20705;-60
2022/03/27 13:24:20;;;;;;;17.67;10.18;;;;;;;;;;5041983;28;20024;-56
2022/03/27 13:26:50;;;;;;;32.38;17.63;;;;;;;;;;5041171;28;20328;-60
2022/03/27 13:29:18;;;;;;;17.30;9.80;;;;;;;;;;5040721;28;20123;-59
2022/03/27 13:31:45;;;;;;;32.40;16.15;;;;;;;;;;5041726;28;20235;-60
2022/03/27 13:34:12;;;;;;;116.70;53.40;;;;;;;;;;5041172;28;20051;-58
2022/03/27 13:36:41;;;;;;;84.00;41.58;;;;;;;;;;5040795;28;20033;-62
2022/03/27 13:39:08;;;;;;;19.38;11.40;;;;;;;;;;5041998;28;20075;-60
2022/03/27 13:44:22;;;;;;;164.65;78.78;;;;;;;;;;5042838;28;20051;-72
2022/03/27 13:46:49;;;;;;;69.35;33.85;;;;;;;;;;5070114;27;20047;-68
2022/03/27 13:49:16;;;;;;;65.55;30.48;;;;;;;;;;5084928;28;20393;-66
2022/03/27 13:51:42;;;;;;;342.33;157.85;;;;;;;;;;5084579;27;20101;-70
2022/03/27 13:54:08;;;;;;;150.95;70.10;;;;;;;;;;5084397;28;20027;-68
2022/03/27 13:56:38;;;;;;;131.95;60.92;;;;;;;;;;5081741;28;20861;-68
2022/03/27 13:59:04;;;;;;;122.30;55.78;;;;;;;;;;5085134;28;20019;-79
2022/03/27 14:01:35;;;;;;;171.48;76.53;;;;;;;;;;5084276;28;20100;-61
2022/03/27 14:04:01;;;;;;;43.85;23.88;;;;;;;;;;5083978;28;20026;-74
2022/03/27 14:06:28;;;;;;;67.00;33.13;;;;;;;;;;5085045;28;20024;-71
2022/03/27 14:08:54;;;;;;;78.13;37.75;;;;;;;;;;5083495;28;20511;-65
2022/03/27 14:11:21;;;;;;;92.90;43.17;;;;;;;;;;5083946;27;20024;-67
2022/03/27 14:13:52;;;;;;;35.10;16.52;;;;;;;;;;5083943;28;20027;-76
2022/03/27 14:16:21;;;;;;;25.50;12.40;;;;;;;;;;5084044;28;20107;-62
2022/03/27 14:18:47;;;;;;;51.72;22.90;;;;;;;;;;5083392;28;20059;-60
2022/03/27 14:21:14;;;;;;;48.30;25.45;;;;;;;;;;5083846;27;20381;-58
2022/03/27 14:23:40;;;;;;;97.75;49.67;;;;;;;;;;5083997;27;20123;-60
2022/03/27 14:26:06;;;;;;;24.40;11.27;;;;;;;;;;5083527;28;20063;-58
2022/03/27 14:28:33;;;;;;;27.25;14.77;;;;;;;;;;5083886;28;20836;-58
2022/03/27 14:30:59;;;;;;;45.42;22.45;;;;;;;;;;5083426;28;20024;-59
2022/03/27 14:33:26;;;;;;;50.03;26.58;;;;;;;;;;5083141;28;20032;-57
2022/03/27 14:35:52;;;;;;;28.27;16.05;;;;;;;;;;5083593;28;20357;-58
2022/03/27 14:38:19;;;;;;;46.85;25.45;;;;;;;;;;5083084;28;20085;-58
2022/03/27 14:40:45;;;;;;;34.72;19.63;;;;;;;;;;5083437;28;20641;-56
2022/03/27 14:43:14;;;;;;;30.88;15.15;;;;;;;;;;5083024;28;20062;-57
2022/03/27 14:45:40;;;;;;;20.13;11.70;;;;;;;;;;5083558;28;20066;-60